Time;durP1;ratioP1;P1;durP2;ratioP2;P2;SDS_P1;SDS_P2;PMS_P1;PMS_P2;Temp;Humidity;BMP_temperature;BMP_pressure;BME280_temperature;BME280_humidity;BME280_pressure;Samples;Min_cycle;Max_cycle;Signal;HPM_P1;HPM_P2
2022/11/03 00:02:00;;;;;;;10.13;1.13;;;11.00;99.90;;;;;;5008222;28;20049;-71
2022/11/03 00:04:27;;;;;;;4.40;0.70;;;11.00;99.90;;;;;;5037766;28;20056;-72
2022/11/03 00:06:54;;;;;;;8.77;1.13;;;11.00;99.90;;;;;;5037189;28;20041;-71
2022/11/03 00:09:21;;;;;;;7.13;0.90;;;10.90;99.90;;;;;;5024515;28;20045;-71
2022/11/03 00:11:50;;;;;;;8.00;0.95;;;10.90;99.90;;;;;;5050906;28;20033;-71
2022/11/03 00:14:17;;;;;;;9.65;1.13;;;10.90;99.90;;;;;;5039181;28;20029;-72
2022/11/03 00:16:43;;;;;;;7.18;0.70;;;10.90;99.90;;;;;;5039695;28;20108;-71
2022/11/03 00:19:12;;;;;;;6.47;0.73;;;10.90;99.90;;;;;;5038539;28;20037;-71
2022/11/03 00:21:38;;;;;;;12.88;1.05;;;10.90;99.90;;;;;;5017692;28;20215;-73
2022/11/03 00:24:05;;;;;;;5.53;0.70;;;10.90;99.90;;;;;;5039125;28;20029;-72
2022/11/03 00:26:33;;;;;;;9.88;1.65;;;10.90;99.90;;;;;;5010085;28;20500;-71
2022/11/03 00:29:05;;;;;;;10.00;1.40;;;10.90;99.90;;;;;;5021380;28;20514;-72
2022/11/03 00:31:33;;;;;;;9.27;1.30;;;10.90;99.90;;;;;;5035874;28;20040;-72
2022/11/03 00:34:01;;;;;;;12.13;1.38;;;10.90;99.90;;;;;;5037395;28;20037;-72
2022/11/03 00:36:30;;;;;;;8.77;1.38;;;10.90;99.90;;;;;;5036156;28;20791;-72
2022/11/03 00:38:57;;;;;;;4.70;0.77;;;10.90;99.90;;;;;;5035190;28;20037;-72
2022/11/03 00:41:25;;;;;;;8.18;0.90;;;10.90;99.90;;;;;;5034594;28;20055;-72
2022/11/03 00:43:52;;;;;;;7.78;1.40;;;10.90;99.90;;;;;;5005166;28;20033;-72
2022/11/03 00:46:20;;;;;;;9.68;1.80;;;10.80;99.90;;;;;;5023165;28;20053;-72
2022/11/03 00:48:47;;;;;;;9.30;1.02;;;10.90;99.90;;;;;;5038382;28;20044;-73
2022/11/03 00:51:22;;;;;;;6.50;0.98;;;10.90;99.90;;;;;;5017024;28;20033;-72
2022/11/03 00:54:00;;;;;;;11.35;1.55;;;10.80;99.90;;;;;;5016247;28;20523;-72
2022/11/03 00:56:35;;;;;;;9.90;0.90;;;10.80;99.90;;;;;;5027049;28;20444;-72
2022/11/03 00:59:03;;;;;;;8.52;1.30;;;10.80;99.90;;;;;;5004020;28;20041;-71
2022/11/03 01:01:32;;;;;;;13.05;1.45;;;10.80;99.90;;;;;;5036832;28;20056;-72
2022/11/03 01:06:49;;;;;;;11.63;1.02;;;10.80;99.90;;;;;;5038806;28;20024;-72
2022/11/03 01:09:24;;;;;;;8.15;1.17;;;10.80;99.90;;;;;;5001922;28;20037;-71
2022/11/03 01:12:02;;;;;;;12.38;1.15;;;10.80;99.90;;;;;;4999847;28;20041;-72
2022/11/03 01:14:40;;;;;;;10.20;1.30;;;10.80;99.90;;;;;;5054491;28;20041;-72
2022/11/03 01:17:09;;;;;;;7.72;1.15;;;10.80;99.90;;;;;;5039304;28;20032;-71
2022/11/03 01:19:35;;;;;;;5.32;0.90;;;10.80;99.90;;;;;;5020011;28;20048;-72
2022/11/03 01:22:02;;;;;;;10.07;1.23;;;10.80;99.90;;;;;;5039460;28;20043;-71
2022/11/03 01:24:28;;;;;;;12.82;1.80;;;10.70;99.90;;;;;;5024052;28;20064;-72
2022/11/03 01:26:54;;;;;;;7.18;0.70;;;10.80;99.90;;;;;;5041960;28;20036;-72
2022/11/03 01:29:21;;;;;;;5.72;0.50;;;10.80;99.90;;;;;;5022014;28;20523;-73
2022/11/03 01:31:48;;;;;;;6.75;0.80;;;10.80;99.90;;;;;;5016761;28;20051;-73
2022/11/03 01:34:15;;;;;;;8.82;1.30;;;10.70;99.90;;;;;;5020367;28;20029;-73
2022/11/03 01:36:42;;;;;;;11.18;1.33;;;10.70;99.90;;;;;;5022412;28;20040;-72
2022/11/03 01:39:13;;;;;;;10.00;1.33;;;10.70;99.90;;;;;;5025479;28;20044;-72
2022/11/03 01:41:41;;;;;;;7.53;0.90;;;10.70;99.90;;;;;;5038852;28;20063;-72
2022/11/03 01:44:07;;;;;;;7.68;0.95;;;10.70;99.90;;;;;;5040069;28;20052;-72
2022/11/03 01:46:46;;;;;;;7.72;1.05;;;10.70;99.90;;;;;;5023396;28;20041;-72
2022/11/03 01:49:21;;;;;;;10.27;1.27;;;10.70;99.90;;;;;;5038538;28;20399;-72
2022/11/03 01:51:53;;;;;;;7.72;0.90;;;10.70;99.90;;;;;;5033744;28;20597;-72
2022/11/03 01:54:21;;;;;;;8.95;1.50;;;10.60;99.90;;;;;;5040681;28;20036;-71
2022/11/03 01:56:50;;;;;;;5.45;0.77;;;10.60;99.90;;;;;;5039217;28;20056;-73
2022/11/03 01:59:19;;;;;;;6.22;1.42;;;10.60;99.90;;;;;;5023110;28;20075;-71
2022/11/03 02:01:46;;;;;;;13.75;1.75;;;10.60;99.90;;;;;;5033922;28;20044;-72
2022/11/03 02:04:19;;;;;;;12.05;1.15;;;10.60;99.90;;;;;;5039218;28;20040;-73
2022/11/03 02:06:53;;;;;;;8.55;1.35;;;10.60;99.90;;;;;;5038173;28;20033;-73
2022/11/03 02:09:20;;;;;;;6.82;0.85;;;10.60;99.90;;;;;;5020395;28;20048;-71
2022/11/03 02:14:31;;;;;;;11.25;1.73;;;10.50;99.90;;;;;;5039823;28;20041;-71
2022/11/03 02:17:07;;;;;;;8.32;1.83;;;10.50;99.90;;;;;;5023477;28;20518;-72
2022/11/03 02:19:44;;;;;;;9.80;1.20;;;10.50;99.90;;;;;;5024389;28;20048;-72
2022/11/03 02:22:41;;;;;;;7.13;1.17;;;10.40;99.90;;;;;;5039240;28;20055;-72
2022/11/03 02:25:37;;;;;;;11.07;1.75;;;10.40;99.90;;;;;;5040717;28;20044;-72
2022/11/03 02:28:04;;;;;;;10.20;1.77;;;10.40;99.90;;;;;;5040062;28;20037;-74
2022/11/03 02:30:40;;;;;;;15.05;3.28;;;10.40;99.90;;;;;;5039057;28;20044;-73
2022/11/03 02:33:27;;;;;;;9.93;1.80;;;10.40;99.90;;;;;;5020075;28;20044;-74
2022/11/03 02:36:02;;;;;;;10.45;1.90;;;10.40;99.90;;;;;;5039601;28;20387;-73
2022/11/03 02:38:33;;;;;;;14.75;2.80;;;10.40;99.90;;;;;;5039822;28;20041;-72
2022/11/03 02:41:04;;;;;;;11.63;1.90;;;10.40;99.90;;;;;;5023157;28;20048;-73
2022/11/03 02:43:30;;;;;;;13.63;1.45;;;10.50;99.90;;;;;;5018640;28;20407;-72
2022/11/03 02:45:57;;;;;;;6.82;1.45;;;10.50;99.90;;;;;;5030015;28;20044;-73
2022/11/03 02:48:23;;;;;;;10.73;1.25;;;10.50;99.90;;;;;;5043200;28;20044;-73
2022/11/03 02:50:49;;;;;;;8.18;1.27;;;10.50;99.90;;;;;;5040091;28;20191;-73
2022/11/03 02:53:16;;;;;;;8.88;1.65;;;10.50;99.90;;;;;;5020653;28;20037;-73
2022/11/03 02:56:20;;;;;;;15.25;1.50;;;10.50;99.90;;;;;;5006363;28;20044;-73
2022/11/03 02:58:59;;;;;;;15.75;2.35;;;10.50;99.90;;;;;;5023597;28;20045;-73
2022/11/03 03:01:48;;;;;;;14.90;2.17;;;10.50;99.90;;;;;;5037803;28;20049;-72
2022/11/03 03:04:30;;;;;;;7.07;1.40;;;10.50;99.90;;;;;;5006666;28;20033;-72
2022/11/03 03:07:01;;;;;;;9.98;1.42;;;10.50;99.90;;;;;;5021813;28;20037;-72
2022/11/03 03:09:39;;;;;;;9.23;1.73;;;10.50;99.90;;;;;;5023822;28;21146;-73
2022/11/03 03:12:09;;;;;;;9.38;1.50;;;10.50;99.90;;;;;;5003835;28;20032;-73
2022/11/03 03:14:40;;;;;;;9.65;2.25;;;10.50;99.90;;;;;;5022689;28;20040;-71
2022/11/03 03:17:15;;;;;;;7.55;1.27;;;10.50;99.90;;;;;;5047076;28;20051;-71
2022/11/03 03:20:04;;;;;;;15.00;2.15;;;10.50;99.90;;;;;;5042577;28;20040;-72
2022/11/03 03:22:52;;;;;;;10.35;1.10;;;10.50;99.90;;;;;;5020398;28;20064;-72
2022/11/03 03:25:29;;;;;;;10.13;1.67;;;10.50;99.90;;;;;;5021737;28;20025;-73
2022/11/03 03:28:04;;;;;;;10.50;1.13;;;10.50;99.90;;;;;;5058237;28;20029;-73
2022/11/03 03:30:32;;;;;;;14.60;1.85;;;10.50;99.90;;;;;;5005605;28;20052;-71
2022/11/03 03:33:02;;;;;;;8.60;2.15;;;10.50;99.90;;;;;;5039306;28;20063;-71
2022/11/03 03:35:31;;;;;;;8.02;1.40;;;10.50;99.90;;;;;;5015347;28;21164;-73
2022/11/03 03:38:02;;;;;;;8.55;1.58;;;10.50;99.90;;;;;;5008411;28;20037;-72
2022/11/03 03:40:34;;;;;;;8.70;1.20;;;10.50;99.90;;;;;;5040698;28;20392;-73
2022/11/03 03:43:03;;;;;;;9.82;1.50;;;10.40;99.90;;;;;;5038400;28;21165;-72
2022/11/03 03:45:31;;;;;;;9.23;1.48;;;10.40;99.90;;;;;;5024117;28;20045;-72
2022/11/03 03:47:58;;;;;;;13.68;1.30;;;10.40;99.90;;;;;;5046051;28;20037;-72
2022/11/03 03:50:28;;;;;;;10.40;1.65;;;10.40;99.90;;;;;;5022184;28;20037;-73
2022/11/03 03:52:59;;;;;;;5.60;1.23;;;10.40;99.90;;;;;;5019287;28;20672;-72
2022/11/03 03:55:36;;;;;;;7.18;1.13;;;10.40;99.90;;;;;;5041719;28;20047;-73
2022/11/03 03:58:04;;;;;;;8.48;1.40;;;10.40;99.90;;;;;;5011492;28;20059;-73
2022/11/03 04:00:30;;;;;;;8.55;1.50;;;10.40;99.90;;;;;;5021480;28;20041;-72
2022/11/03 04:02:57;;;;;;;10.45;0.93;;;10.40;99.90;;;;;;5021146;28;20640;-72
2022/11/03 04:05:25;;;;;;;5.95;0.90;;;10.40;99.90;;;;;;5024583;28;20045;-73
2022/11/03 04:07:51;;;;;;;8.40;0.95;;;10.40;99.90;;;;;;5042034;28;20029;-73
2022/11/03 04:10:21;;;;;;;8.18;0.90;;;10.40;99.90;;;;;;5040080;28;20032;-72
2022/11/03 04:23:50;;;;;;;6.57;0.63;;;10.50;99.90;;;;;;5020100;28;20045;-73
2022/11/03 04:26:21;;;;;;;7.22;0.80;;;10.50;99.90;;;;;;5007104;28;20476;-73
2022/11/03 04:28:49;;;;;;;9.30;0.77;;;10.50;99.90;;;;;;5019668;28;20033;-73
2022/11/03 04:31:17;;;;;;;10.80;0.90;;;10.50;99.90;;;;;;5020122;28;20375;-73
2022/11/03 04:33:44;;;;;;;5.10;0.63;;;10.50;99.90;;;;;;5017736;28;20033;-72
2022/11/03 04:36:24;;;;;;;5.78;0.70;;;10.50;99.90;;;;;;5037568;28;20036;-72
2022/11/03 04:38:51;;;;;;;6.00;0.70;;;10.50;99.90;;;;;;5018510;28;20045;-73
2022/11/03 04:41:23;;;;;;;7.20;0.95;;;10.50;99.90;;;;;;5000491;28;20036;-73
2022/11/03 04:43:51;;;;;;;9.00;0.80;;;10.60;99.90;;;;;;5005909;28;20040;-72
2022/11/03 04:46:28;;;;;;;3.40;0.70;;;10.60;99.90;;;;;;5020741;28;20215;-73
2022/11/03 04:48:59;;;;;;;7.50;1.00;;;10.60;99.90;;;;;;5035883;28;20418;-73
2022/11/03 04:51:32;;;;;;;5.07;0.93;;;10.60;99.90;;;;;;5006363;28;20534;-72
2022/11/03 04:54:02;;;;;;;8.27;1.00;;;10.60;99.90;;;;;;5037079;28;20407;-72
2022/11/03 04:56:29;;;;;;;4.35;0.70;;;10.60;99.90;;;;;;5041222;28;20056;-72
2022/11/03 04:58:57;;;;;;;8.75;1.73;;;10.60;99.90;;;;;;5039380;28;20587;-73
2022/11/03 05:01:24;;;;;;;6.90;1.08;;;10.60;99.90;;;;;;5020582;28;20048;-70
2022/11/03 05:03:53;;;;;;;5.88;0.70;;;10.60;99.90;;;;;;5003488;28;20079;-72
2022/11/03 05:06:22;;;;;;;5.18;0.90;;;10.60;99.90;;;;;;5041847;28;20043;-73
2022/11/03 05:08:54;;;;;;;6.85;1.02;;;10.60;99.90;;;;;;5006676;28;20037;-72
2022/11/03 05:11:23;;;;;;;7.97;0.93;;;10.60;99.90;;;;;;5011555;28;20025;-72
2022/11/03 05:13:51;;;;;;;7.80;0.93;;;10.60;99.90;;;;;;5018979;28;20029;-72
2022/11/03 05:16:18;;;;;;;7.28;0.90;;;10.70;99.90;;;;;;5040673;28;20507;-73
2022/11/03 05:18:48;;;;;;;4.80;0.70;;;10.70;99.90;;;;;;5040480;28;20029;-74
2022/11/03 05:21:17;;;;;;;5.38;1.15;;;10.70;99.90;;;;;;5003935;28;20041;-71
2022/11/03 05:23:51;;;;;;;6.78;0.50;;;10.80;99.90;;;;;;5039896;28;20059;-73
2022/11/03 05:26:22;;;;;;;7.43;0.80;;;10.80;99.90;;;;;;5039614;28;20028;-72
2022/11/03 05:28:52;;;;;;;7.18;0.90;;;10.80;99.90;;;;;;5039933;28;20036;-72
2022/11/03 05:31:24;;;;;;;4.90;0.73;;;10.80;99.90;;;;;;5037657;28;20496;-73
2022/11/03 05:33:56;;;;;;;8.43;0.80;;;10.80;99.90;;;;;;5040776;28;20029;-73
2022/11/03 05:36:25;;;;;;;6.63;1.90;;;10.80;99.90;;;;;;5023257;28;20292;-72
2022/11/03 05:38:58;;;;;;;4.85;0.80;;;10.80;99.90;;;;;;5042324;28;20041;-72
2022/11/03 05:41:29;;;;;;;4.60;0.50;;;10.80;99.90;;;;;;5022537;28;20041;-72
2022/11/03 05:44:04;;;;;;;10.82;0.80;;;10.80;99.90;;;;;;5008312;28;20041;-73
2022/11/03 05:46:33;;;;;;;7.30;1.23;;;10.80;99.90;;;;;;5010988;28;20362;-72
2022/11/03 05:49:01;;;;;;;7.30;1.40;;;10.80;99.90;;;;;;5042152;28;20040;-72
2022/11/03 05:51:32;;;;;;;4.35;0.85;;;10.80;99.90;;;;;;5039679;28;20476;-71
2022/11/03 05:54:03;;;;;;;6.32;0.85;;;10.80;99.90;;;;;;5045945;28;20040;-71
2022/11/03 05:56:31;;;;;;;5.72;0.88;;;10.90;99.90;;;;;;5059496;28;20056;-71
2022/11/03 05:58:59;;;;;;;6.97;0.95;;;10.90;99.90;;;;;;5023221;28;20036;-71
2022/11/03 06:01:32;;;;;;;7.00;0.70;;;10.90;99.90;;;;;;5024095;28;20036;-71
2022/11/03 06:04:03;;;;;;;8.45;1.30;;;10.90;99.90;;;;;;5024977;28;20406;-71
2022/11/03 06:06:33;;;;;;;4.45;1.15;;;10.90;99.90;;;;;;5042682;28;20052;-73
2022/11/03 06:09:13;;;;;;;7.60;0.80;;;10.90;99.90;;;;;;5042185;28;20497;-72
2022/11/03 06:11:40;;;;;;;8.20;1.05;;;10.90;99.90;;;;;;5037947;28;20037;-72
2022/11/03 06:14:24;;;;;;;13.00;3.60;;;10.90;99.90;;;;;;5043750;28;20029;-71
2022/11/03 06:17:00;;;;;;;16.50;6.18;;;10.90;99.90;;;;;;5043110;28;20032;-73
2022/11/03 06:19:33;;;;;;;15.63;7.85;;;11.00;99.90;;;;;;5025518;28;20044;-72
2022/11/03 06:22:28;;;;;;;11.57;4.40;;;10.90;99.90;;;;;;5021645;28;20063;-72
2022/11/03 06:24:59;;;;;;;16.33;6.35;;;11.00;99.90;;;;;;5043039;28;20037;-72
2022/11/03 06:27:29;;;;;;;9.95;3.38;;;10.90;99.90;;;;;;5041505;28;20500;-72
2022/11/03 06:30:01;;;;;;;5.25;1.20;;;10.90;99.90;;;;;;5040149;28;20361;-72
2022/11/03 06:32:28;;;;;;;5.45;1.30;;;10.90;99.90;;;;;;5056412;28;20041;-70
2022/11/03 06:34:56;;;;;;;6.93;1.00;;;11.00;99.90;;;;;;5041913;28;20029;-72
2022/11/03 06:37:32;;;;;;;6.35;1.00;;;10.90;99.90;;;;;;5028576;28;20491;-71
2022/11/03 06:40:01;;;;;;;6.85;1.48;;;11.00;99.90;;;;;;5024715;28;20045;-71
2022/11/03 06:42:32;;;;;;;7.55;0.93;;;11.00;99.90;;;;;;5041778;28;20049;-71
2022/11/03 06:45:01;;;;;;;10.50;1.15;;;11.00;99.90;;;;;;5042781;28;20041;-71
2022/11/03 06:47:28;;;;;;;5.78;1.10;;;11.00;99.90;;;;;;5023041;28;20044;-72
2022/11/03 06:49:57;;;;;;;8.30;1.02;;;11.00;99.90;;;;;;5024902;28;20905;-73
2022/11/03 06:52:25;;;;;;;6.07;0.70;;;11.00;99.90;;;;;;5025296;28;20056;-72
2022/11/03 06:55:00;;;;;;;8.32;1.20;;;11.00;99.90;;;;;;5043591;28;20436;-71
2022/11/03 06:57:31;;;;;;;5.88;1.05;;;11.00;99.90;;;;;;5027517;28;20579;-74
2022/11/03 06:59:57;;;;;;;14.52;5.43;;;11.10;99.90;;;;;;5040644;28;20032;-72
2022/11/03 07:02:49;;;;;;;10.55;3.08;;;11.10;99.90;;;;;;5039799;28;20044;-72
2022/11/03 07:05:24;;;;;;;7.55;1.90;;;11.10;99.90;;;;;;5044234;28;20036;-72
2022/11/03 07:08:03;;;;;;;11.02;1.95;;;11.20;99.90;;;;;;5026091;28;20048;-71
2022/11/03 07:10:32;;;;;;;8.52;1.95;;;11.20;99.90;;;;;;5042082;28;20048;-71
2022/11/03 07:13:09;;;;;;;8.25;1.30;;;11.20;99.90;;;;;;5041051;28;20045;-73
2022/11/03 07:15:38;;;;;;;5.75;1.55;;;11.20;99.90;;;;;;5008890;28;20040;-72
2022/11/03 07:18:17;;;;;;;6.05;1.10;;;11.20;99.90;;;;;;5009792;28;20060;-72
2022/11/03 07:20:43;;;;;;;9.30;1.55;;;11.30;99.90;;;;;;5022243;28;20039;-71
2022/11/03 07:23:15;;;;;;;7.38;0.93;;;11.20;99.90;;;;;;5041104;28;20048;-71
2022/11/03 07:25:49;;;;;;;7.55;0.90;;;11.30;99.90;;;;;;5042564;28;20052;-73
2022/11/03 07:28:15;;;;;;;7.25;1.58;;;11.30;99.90;;;;;;5007530;28;20040;-72
2022/11/03 07:30:42;;;;;;;8.27;1.08;;;11.40;99.90;;;;;;5041612;28;20040;-73
2022/11/03 07:33:16;;;;;;;9.20;1.20;;;11.40;99.90;;;;;;5040252;28;20044;-72
2022/11/03 07:35:44;;;;;;;8.30;1.73;;;11.40;99.90;;;;;;5043220;28;20025;-72
2022/11/03 07:38:13;;;;;;;9.32;1.60;;;11.50;99.90;;;;;;5023472;28;20037;-72
2022/11/03 07:40:40;;;;;;;6.47;1.10;;;11.50;99.90;;;;;;5040496;28;20024;-71
2022/11/03 07:43:17;;;;;;;6.82;1.30;;;11.60;99.90;;;;;;5040870;28;20043;-72
2022/11/03 07:45:50;;;;;;;8.85;1.75;;;11.60;99.90;;;;;;5043047;28;20032;-72
2022/11/03 07:48:18;;;;;;;8.90;1.15;;;11.70;99.90;;;;;;5044781;28;20036;-72
2022/11/03 07:50:46;;;;;;;7.32;1.02;;;11.70;99.90;;;;;;5043141;28;20029;-72
2022/11/03 07:53:24;;;;;;;12.75;1.88;;;11.80;99.90;;;;;;5042787;28;20043;-72
2022/11/03 07:55:54;;;;;;;7.65;1.70;;;11.90;99.90;;;;;;5042994;28;20056;-73
2022/11/03 07:58:42;;;;;;;8.65;1.63;;;11.90;99.90;;;;;;5045895;28;20029;-73
2022/11/03 08:01:19;;;;;;;13.32;3.75;;;11.90;99.90;;;;;;5040809;28;20055;-71
2022/11/03 08:03:47;;;;;;;10.93;1.98;;;12.00;99.90;;;;;;5042237;28;20037;-72
2022/11/03 08:06:13;;;;;;;9.60;1.75;;;12.10;99.90;;;;;;5046666;28;20044;-72
2022/11/03 08:08:39;;;;;;;8.02;1.23;;;12.10;99.90;;;;;;5043019;28;20036;-74
2022/11/03 08:11:06;;;;;;;9.13;1.23;;;12.10;99.90;;;;;;5021886;28;20411;-72
2022/11/03 08:13:33;;;;;;;7.50;1.15;;;12.20;99.90;;;;;;5044419;28;20305;-72
2022/11/03 08:15:59;;;;;;;8.30;2.53;;;12.20;99.90;;;;;;5044163;28;20033;-74
2022/11/03 08:18:25;;;;;;;7.15;1.02;;;12.30;99.90;;;;;;5045927;28;20032;-72
2022/11/03 08:20:52;;;;;;;7.65;0.90;;;12.30;99.90;;;;;;5039261;28;20047;-72
2022/11/03 08:23:18;;;;;;;6.90;1.52;;;12.30;99.90;;;;;;5039363;28;20040;-70
2022/11/03 08:25:45;;;;;;;6.85;1.27;;;12.40;99.90;;;;;;5047486;28;20041;-72
2022/11/03 08:28:11;;;;;;;11.13;1.60;;;12.40;99.90;;;;;;5043611;28;20033;-73
2022/11/03 08:30:38;;;;;;;6.18;1.33;;;12.40;99.90;;;;;;5025894;28;20036;-72
2022/11/03 08:33:04;;;;;;;9.48;2.03;;;12.40;99.90;;;;;;5025330;28;20041;-73
2022/11/03 08:35:30;;;;;;;11.30;1.80;;;12.50;99.90;;;;;;5041353;28;20040;-72
2022/11/03 08:37:57;;;;;;;8.75;1.90;;;12.50;99.90;;;;;;5041264;28;20033;-71
2022/11/03 08:40:23;;;;;;;8.15;1.92;;;12.50;99.90;;;;;;5039028;28;20045;-72
2022/11/03 08:42:49;;;;;;;8.55;1.38;;;12.50;99.90;;;;;;5039818;28;20040;-71
2022/11/03 08:45:16;;;;;;;8.13;2.03;;;12.60;99.90;;;;;;5041507;28;20468;-71
2022/11/03 08:47:42;;;;;;;9.13;1.42;;;12.60;99.90;;;;;;5044355;28;20036;-72
2022/11/03 08:50:08;;;;;;;7.85;1.70;;;12.60;99.90;;;;;;5040471;28;20040;-72
2022/11/03 08:52:35;;;;;;;3.90;1.00;;;12.60;99.90;;;;;;5024997;28;20052;-72
2022/11/03 08:55:01;;;;;;;7.15;0.93;;;12.60;99.90;;;;;;5007036;28;20052;-73
2022/11/03 08:57:28;;;;;;;8.02;1.60;;;12.70;99.90;;;;;;5024374;28;20056;-72
2022/11/03 08:59:55;;;;;;;8.85;1.38;;;12.70;99.90;;;;;;5036460;28;20025;-72
2022/11/03 09:02:22;;;;;;;9.45;1.65;;;12.80;99.90;;;;;;5021961;28;20049;-71
2022/11/03 09:04:48;;;;;;;8.25;1.75;;;12.80;99.90;;;;;;5039446;28;20029;-72
2022/11/03 09:07:15;;;;;;;3.58;0.90;;;12.90;99.90;;;;;;5036845;28;20037;-72
2022/11/03 09:09:41;;;;;;;8.02;1.17;;;13.00;99.90;;;;;;5022448;28;20530;-72
2022/11/03 09:12:07;;;;;;;10.95;1.92;;;13.00;99.90;;;;;;5035780;28;20060;-72
2022/11/03 09:14:33;;;;;;;10.77;1.75;;;13.10;99.90;;;;;;5038187;28;20051;-72
2022/11/03 09:17:00;;;;;;;7.65;1.40;;;13.20;99.90;;;;;;5053450;28;20041;-73
2022/11/03 09:19:26;;;;;;;8.55;1.65;;;13.20;99.90;;;;;;5035740;28;20036;-72
2022/11/03 09:21:52;;;;;;;5.80;1.20;;;13.30;99.90;;;;;;5033566;28;20049;-73
2022/11/03 09:24:19;;;;;;;7.07;0.95;;;13.30;99.90;;;;;;5037042;28;20025;-72
2022/11/03 09:26:45;;;;;;;7.22;0.93;;;13.30;99.90;;;;;;5022555;28;20048;-72
2022/11/03 09:29:11;;;;;;;6.32;1.13;;;13.40;99.90;;;;;;5034362;28;20828;-71
2022/11/03 09:31:38;;;;;;;8.38;0.98;;;13.40;99.90;;;;;;5035905;28;20044;-70
2022/11/03 09:34:04;;;;;;;7.00;0.90;;;13.50;99.90;;;;;;5037319;28;20433;-71
2022/11/03 09:36:30;;;;;;;5.03;0.85;;;13.60;99.90;;;;;;5039079;28;20052;-71
2022/11/03 09:38:56;;;;;;;8.63;1.20;;;13.70;99.90;;;;;;5006268;28;20028;-72
2022/11/03 09:41:23;;;;;;;4.43;0.90;;;13.80;99.90;;;;;;5021099;28;20048;-70
2022/11/03 09:43:50;;;;;;;9.13;1.30;;;13.90;99.90;;;;;;5016394;28;20123;-72
2022/11/03 09:46:17;;;;;;;10.35;2.70;;;14.00;99.90;;;;;;5021069;28;20384;-71
2022/11/03 09:48:44;;;;;;;6.53;1.52;;;14.10;99.90;;;;;;5023392;28;20036;-72
2022/11/03 09:51:17;;;;;;;9.18;1.63;;;14.20;99.90;;;;;;5040401;28;20064;-72
2022/11/03 09:53:44;;;;;;;4.75;0.93;;;14.40;99.90;;;;;;5038929;28;20407;-73
2022/11/03 09:56:10;;;;;;;8.80;1.20;;;14.50;99.90;;;;;;5039668;28;20465;-72
2022/11/03 09:58:36;;;;;;;5.97;1.08;;;14.60;99.90;;;;;;5039427;28;20052;-72
2022/11/03 10:01:03;;;;;;;7.55;2.13;;;14.70;99.90;;;;;;5023940;28;20049;-72
2022/11/03 10:03:30;;;;;;;6.82;1.73;;;14.70;99.90;;;;;;5005351;28;20494;-72
2022/11/03 10:05:56;;;;;;;5.05;0.82;;;14.70;99.90;;;;;;5006989;28;20497;-72
2022/11/03 10:08:27;;;;;;;8.90;1.23;;;14.70;99.90;;;;;;5044151;28;20057;-72
2022/11/03 10:10:54;;;;;;;8.27;1.25;;;14.60;99.90;;;;;;5023049;28;20025;-72
2022/11/03 10:13:34;;;;;;;7.32;0.95;;;14.60;99.90;;;;;;5006531;28;20033;-71
2022/11/03 10:16:14;;;;;;;3.85;0.70;;;14.60;99.90;;;;;;5041123;28;20033;-72
2022/11/03 10:18:41;;;;;;;7.38;0.93;;;14.50;99.90;;;;;;5042536;28;20033;-71
2022/11/03 10:21:29;;;;;;;5.53;0.90;;;14.40;99.90;;;;;;5027039;28;20412;-72
2022/11/03 10:23:55;;;;;;;6.15;1.35;;;14.50;99.90;;;;;;5041865;28;20033;-72
2022/11/03 10:26:22;;;;;;;6.70;1.27;;;14.40;99.90;;;;;;5040751;28;20388;-71
2022/11/03 10:29:09;;;;;;;6.95;1.17;;;14.40;99.90;;;;;;5042984;28;20028;-71
2022/11/03 10:31:40;;;;;;;8.25;0.85;;;14.50;99.90;;;;;;5040049;28;20045;-71
2022/11/03 10:34:38;;;;;;;5.63;1.10;;;14.50;99.90;;;;;;5042425;28;20427;-72
2022/11/03 10:37:25;;;;;;;6.55;1.05;;;14.50;99.90;;;;;;5035620;28;20055;-72
2022/11/03 10:39:53;;;;;;;6.60;1.02;;;14.40;99.90;;;;;;5028446;28;20032;-71
2022/11/03 10:42:31;;;;;;;6.93;0.70;;;14.40;99.90;;;;;;5042416;28;20033;-71
2022/11/03 10:45:19;;;;;;;4.13;0.60;;;14.40;99.90;;;;;;5028278;28;20052;-71
2022/11/03 10:47:59;;;;;;;4.47;0.57;;;14.40;99.90;;;;;;5028428;28;20041;-71
2022/11/03 10:50:26;;;;;;;12.15;0.90;;;14.40;99.90;;;;;;5043269;28;20640;-72
2022/11/03 10:52:53;;;;;;;4.38;1.00;;;14.40;99.90;;;;;;5041092;28;20480;-72
2022/11/03 10:55:21;;;;;;;5.68;0.77;;;14.40;99.90;;;;;;5044221;28;20029;-71
2022/11/03 10:57:51;;;;;;;5.30;0.70;;;14.40;99.90;;;;;;5045601;28;20072;-71
2022/11/03 11:00:18;;;;;;;6.68;0.88;;;14.40;99.90;;;;;;5027449;28;20037;-71
2022/11/03 11:02:48;;;;;;;7.72;1.70;;;14.40;99.90;;;;;;5045118;28;20048;-71
2022/11/03 11:05:20;;;;;;;6.57;1.13;;;14.40;99.90;;;;;;5047280;28;20041;-72
2022/11/03 11:07:49;;;;;;;;;;;14.50;99.90;;;;;;5044265;28;20044;-71
2022/11/03 11:10:24;;;;;;;4.53;0.82;;;14.40;99.90;;;;;;5026430;28;19909;-71
2022/11/03 11:13:17;;;;;;;4.68;0.60;;;14.40;99.90;;;;;;5045736;28;20025;-72
2022/11/03 11:15:46;;;;;;;6.95;0.85;;;14.40;99.90;;;;;;5044108;28;20029;-71
2022/11/03 11:18:28;;;;;;;6.28;0.80;;;14.50;99.90;;;;;;5027280;28;20045;-72
2022/11/03 11:21:00;;;;;;;6.50;0.90;;;14.50;99.90;;;;;;5024744;28;20037;-73
2022/11/03 11:23:26;;;;;;;5.43;0.70;;;14.50;99.90;;;;;;5043573;28;20491;-73
2022/11/03 11:26:09;;;;;;;7.07;1.38;;;14.60;99.90;;;;;;5027255;28;20420;-73
2022/11/03 11:28:37;;;;;;;4.45;0.77;;;14.70;99.90;;;;;;5044203;28;20070;-73
2022/11/03 11:31:21;;;;;;;5.50;1.20;;;14.80;99.90;;;;;;5025108;28;20037;-72
2022/11/03 11:33:48;;;;;;;4.03;0.70;;;15.00;99.90;;;;;;5041704;28;20037;-73
2022/11/03 11:36:24;;;;;;;5.93;0.80;;;15.00;99.90;;;;;;5026801;28;20029;-73
2022/11/03 11:38:51;;;;;;;6.65;1.33;;;15.00;99.90;;;;;;5012738;28;20040;-72
2022/11/03 11:41:19;;;;;;;4.40;0.88;;;15.00;99.90;;;;;;5026612;28;20048;-71
2022/11/03 11:43:46;;;;;;;6.82;1.90;;;15.00;99.90;;;;;;5024996;28;20043;-71
2022/11/03 11:46:21;;;;;;;4.72;1.30;;;15.10;99.90;;;;;;5025399;28;20036;-71
2022/11/03 11:49:03;;;;;;;4.22;0.70;;;15.20;99.90;;;;;;5024580;28;20387;-73
2022/11/03 11:51:36;;;;;;;6.45;1.48;;;15.20;99.90;;;;;;5022831;28;20048;-71
2022/11/03 11:54:09;;;;;;;8.98;1.33;;;15.20;99.90;;;;;;5022151;28;20403;-73
2022/11/03 11:56:45;;;;;;;3.17;0.85;;;15.30;99.90;;;;;;5041607;28;20048;-73
2022/11/03 11:59:21;;;;;;;6.28;0.70;;;15.30;99.90;;;;;;5008288;28;20029;-71
2022/11/03 12:01:52;;;;;;;8.80;3.30;;;15.50;99.90;;;;;;5024046;28;20036;-72
2022/11/03 12:04:26;;;;;;;6.70;1.15;;;15.60;99.90;;;;;;5043441;28;20045;-73
2022/11/03 12:06:52;;;;;;;8.70;1.35;;;15.60;99.90;;;;;;5015018;28;20486;-73
2022/11/03 12:09:25;;;;;;;6.50;0.80;;;15.60;99.90;;;;;;5042086;28;20025;-71
2022/11/03 12:11:55;;;;;;;4.78;0.68;;;15.70;99.90;;;;;;5038010;28;20428;-72
2022/11/03 12:14:28;;;;;;;8.90;1.02;;;15.80;99.90;;;;;;5040899;28;20037;-71
2022/11/03 12:16:54;;;;;;;;;;;15.90;99.90;;;;;;5040229;28;20041;-71
2022/11/03 12:19:36;;;;;;;7.25;1.23;;;15.80;99.90;;;;;;5039989;28;19920;-71
2022/11/03 12:22:06;;;;;;;8.02;1.42;;;15.80;99.90;;;;;;5024884;28;20044;-72
2022/11/03 12:24:36;;;;;;;5.38;0.82;;;15.80;99.90;;;;;;5040923;28;20262;-71
2022/11/03 12:27:24;;;;;;;4.43;1.00;;;15.80;99.90;;;;;;5057076;28;20399;-72
2022/11/03 12:29:53;;;;;;;5.13;1.20;;;15.90;99.90;;;;;;5036485;28;20463;-71
2022/11/03 12:32:21;;;;;;;4.28;0.77;;;16.00;99.90;;;;;;5021346;28;20044;-71
2022/11/03 12:34:47;;;;;;;4.97;1.17;;;16.00;99.90;;;;;;5024078;28;20032;-71
2022/11/03 12:37:14;;;;;;;8.13;1.00;;;16.00;99.90;;;;;;5024466;28;21497;-71
2022/11/03 12:39:40;;;;;;;6.35;1.10;;;16.10;99.90;;;;;;5020535;28;20041;-72
2022/11/03 12:42:07;;;;;;;5.68;0.90;;;16.10;99.90;;;;;;5022098;28;20053;-72
2022/11/03 12:44:33;;;;;;;4.13;1.00;;;16.20;99.90;;;;;;5023805;28;20047;-72
2022/11/03 12:47:02;;;;;;;5.13;1.10;;;16.30;99.90;;;;;;5026175;28;20035;-72
2022/11/03 12:49:29;;;;;;;3.13;1.00;;;16.40;99.90;;;;;;5041843;28;20048;-73
2022/11/03 12:51:55;;;;;;;12.40;6.20;;;16.40;99.90;;;;;;5026654;28;20684;-73
2022/11/03 12:54:22;;;;;;;6.65;1.98;;;16.40;99.90;;;;;;5024056;28;20467;-72
2022/11/03 12:56:49;;;;;;;5.07;1.15;;;16.30;99.90;;;;;;5028027;28;20069;-71
2022/11/03 12:59:15;;;;;;;5.80;1.30;;;16.30;99.90;;;;;;5043099;28;20422;-71
2022/11/03 13:01:41;;;;;;;5.75;1.15;;;16.30;99.90;;;;;;5037197;28;20053;-72
2022/11/03 13:04:09;;;;;;;5.22;1.00;;;16.20;99.90;;;;;;5042422;28;20047;-72
2022/11/03 13:06:35;;;;;;;3.10;0.95;;;16.20;99.90;;;;;;5044097;28;20840;-74
2022/11/03 13:09:01;;;;;;;5.53;0.90;;;16.20;99.90;;;;;;5023312;28;20673;-74
2022/11/03 13:14:12;;;;;;;5.07;1.13;;;16.20;99.90;;;;;;5025150;28;20048;-72
2022/11/03 13:16:38;;;;;;;4.65;1.33;;;16.30;99.90;;;;;;5042458;28;20060;-72
2022/11/03 13:19:05;;;;;;;9.35;4.60;;;16.30;99.90;;;;;;5026829;28;20036;-71
2022/11/03 13:21:31;;;;;;;5.90;1.88;;;16.30;99.90;;;;;;5030335;28;20036;-73
2022/11/03 13:23:57;;;;;;;2.78;1.00;;;16.30;99.90;;;;;;5040934;28;20024;-72